Aérodrome :
LOGIN :

S'inscrire | Disclaimer

   EN    FR    IT 

 










Légende :    VFR   VFR Marginal   IFR   IFR Intensif   IFR Très Intensif
Visi : 
Plafond : 
>= 8 km
>= 3000ft
5 à 8 km
1000 à 3000 ft
1500m à 5 km
500 à 1000 ft
800 à 1500m
200 à 500 ft
< 800m
< 200 ft
Symboles :   Orages  Brouillard  Fortes neiges  Fortes précipitations  Vent > 20 kt
SIGMETs :   Divers  Orages  Givrage  Turbulence  Onde Orograph.  Cendres Volcan.







- Altitude de l'aérodrome : 357 ft
- Code IATA : TUF
- Voir les cartes d'approche


LFOT - Tours

DERNIER METAR :
  • 161930Z AUTO 28004KT 9999 ///TCU 25/12 Q1015 BECMG NSC

METARs EXPIRÉS :
  • 161900Z AUTO 29005KT CAVOK 26/12 Q1014 TEMPO 4000 SHRA SCT070CB
  • 161830Z AUTO 30007KT 270V330 CAVOK 28/11 Q1014 TEMPO 4000 SHRA SCT070CB
  • 161800Z AUTO 28007KT 250V320 CAVOK 29/11 Q1014 TEMPO 4000 SHRA SCT070CB
  • 161730Z AUTO 29008KT 240V330 CAVOK 29/11 Q1013 TEMPO 4000 SHRA SCT070CB
  • 161700Z AUTO 26008KT 230V300 CAVOK 29/11 Q1013 NOSIG

TAF TAF LFOT
Valide du 16 à 18h jusqu'au 17 à 18h UTC


161700Z 1618/1718 26006KT CAVOK
PROB30
TEMPO 1618/1620 4000 SHRA SCT070CB
Pas de NOTAMs connus pour ce terrain.
2 SIGMETs publiés pour la FIR Paris (LFFF) :
 
Orages noyés dans la masse
LFFF SIGMET 2 VALID 161800/162000 LFPW
LFFF PARIS FIR/UIR EMBD TS FCST WI N4700 E00300 - N4830 E00215 - N4830 E00330 - N4700 E00330 - N4700 E00300 TOP FL300 MOV E 10KT NC=
Orages noyés dans la masse
LFFF SIGMET 1 VALID 161800/162000 LFPW
LFFF PARIS FIR/UIR EMBD TS FCST WI N4715 E00030 - N4715 W00015 - N4745 W00015 - N4745 E00000 - N4715 E00030 TOP FL330 MOV E 15KT NC=



MET'MAP, la Météo Aéronautique d'un coup d'oeil ! - Copyright ORBIFLY Décembre 2007 - Disclaimer

ORBIFLY MET'MAP TEAM :

Programmation & Développement : Alexandra Zaïnal
Conception & Développement : Baudouin d'Aumeries
Co-Programmation & Développement : Marc-Olivier Méhu
Soutien technique & logistique : Manuel Goepfert

Contact : metmap@orbifly.com




SOURCES & CREDITS :

   NOAA